EZS785C LFBD-LFSB
Flight info
| Callsign | EZS785C |
|---|---|
| Flight time | 1h 21m |
| Altitude | 34000 |
| Route | OBLOC DCT SECHE DCT NARAK DCT DITEV DCT MEN DCT NINUN DCT LATAM DCT ETREK/N0405F300 DCT LTP DCT SOPLO DCT OMASI DCT KINNI DCT LAMUR DCT KORED N871 KONOL/N0336F180 Z59 LUMEL |
| Aircraft | A320/M-SDE2E3FGHIJ1RWXYZ/LB1 |
Departure
| Time | 2026-04-28 09:07 |
|---|---|
| Airport | Bordeaux–Mérignac Airport (LFBD) |
Arrival
| Time | 2026-04-28 10:29 |
|---|---|
| Airport | EuroAirport Basel–Mulhouse–Freiburg (LFSB) |
| Time | Latitude | Longitude | Altitude | Speed | Heading |
|---|---|---|---|---|---|
| 2026-04-28 08:39 | 44.82859 | -0.69968 | 163 ft | 0 kts | 15° |
| 2026-04-28 08:57 | 44.82855 | -0.69969 | 164 ft | 3 kts | 15° |
| 2026-04-28 08:58 | 44.82830 | -0.69979 | 164 ft | 2 kts | 15° |
| 2026-04-28 08:58 | 44.82810 | -0.69983 | 164 ft | 4 kts | 329° |
| 2026-04-28 08:58 | 44.82798 | -0.69956 | 164 ft | 4 kts | 283° |
| 2026-04-28 08:58 | 44.82794 | -0.69938 | 164 ft | 0 kts | 287° |
| 2026-04-28 09:01 | 44.82795 | -0.69940 | 162 ft | 1 kts | 287° |
| 2026-04-28 09:01 | 44.82804 | -0.69983 | 163 ft | 8 kts | 287° |
| 2026-04-28 09:02 | 44.82825 | -0.70081 | 164 ft | 11 kts | 287° |
| 2026-04-28 09:02 | 44.82821 | -0.70172 | 164 ft | 9 kts | 216° |
| 2026-04-28 09:02 | 44.82790 | -0.70220 | 164 ft | 6 kts | 282° |
| 2026-04-28 09:02 | 44.82808 | -0.70307 | 164 ft | 13 kts | 287° |
| 2026-04-28 09:03 | 44.82841 | -0.70460 | 164 ft | 20 kts | 286° |
| 2026-04-28 09:03 | 44.82885 | -0.70669 | 164 ft | 23 kts | 287° |
| 2026-04-28 09:03 | 44.82931 | -0.70883 | 164 ft | 22 kts | 287° |
| 2026-04-28 09:03 | 44.82978 | -0.71101 | 160 ft | 25 kts | 287° |
| 2026-04-28 09:04 | 44.83028 | -0.71336 | 163 ft | 24 kts | 283° |
| 2026-04-28 09:04 | 44.83075 | -0.71568 | 163 ft | 25 kts | 287° |
| 2026-04-28 09:04 | 44.83128 | -0.71804 | 164 ft | 24 kts | 288° |
| 2026-04-28 09:04 | 44.83166 | -0.71973 | 164 ft | 12 kts | 284° |
| 2026-04-28 09:05 | 44.83162 | -0.72070 | 164 ft | 9 kts | 239° |
| 2026-04-28 09:05 | 44.83113 | -0.72107 | 164 ft | 8 kts | 194° |
| 2026-04-28 09:05 | 44.83062 | -0.72126 | 164 ft | 7 kts | 194° |
| 2026-04-28 09:05 | 44.83023 | -0.72144 | 164 ft | 5 kts | 199° |
| 2026-04-28 09:06 | 44.83000 | -0.72144 | 165 ft | 3 kts | 160° |
| 2026-04-28 09:06 | 44.82985 | -0.72116 | 165 ft | 3 kts | 108° |
| 2026-04-28 09:06 | 44.82980 | -0.72090 | 165 ft | 6 kts | 106° |
| 2026-04-28 09:06 | 44.82905 | -0.71729 | 166 ft | 78 kts | 106° |
| 2026-04-28 09:07 | 44.82684 | -0.70673 | 170 ft | 142 kts | 105° |
| 2026-04-28 09:07 | 44.82379 | -0.69297 | 742 ft | 147 kts | 109° |
| 2026-04-28 09:07 | 44.81814 | -0.68097 | 1315 ft | 156 kts | 138° |
| 2026-04-28 09:07 | 44.80799 | -0.67370 | 1666 ft | 175 kts | 169° |
| 2026-04-28 09:08 | 44.79545 | -0.67553 | 1971 ft | 194 kts | 203° |
| 2026-04-28 09:08 | 44.78427 | -0.68799 | 2211 ft | 217 kts | 226° |
| 2026-04-28 09:08 | 44.77310 | -0.70388 | 2571 ft | 241 kts | 222° |
| 2026-04-28 09:08 | 44.75778 | -0.71529 | 3058 ft | 260 kts | 188° |
| 2026-04-28 09:09 | 44.73942 | -0.71593 | 3854 ft | 267 kts | 176° |
| 2026-04-28 09:09 | 44.72140 | -0.70950 | 4727 ft | 271 kts | 153° |
| 2026-04-28 09:09 | 44.70642 | -0.69346 | 5585 ft | 275 kts | 129° |
| 2026-04-28 09:09 | 44.69768 | -0.66993 | 6428 ft | 278 kts | 102° |
| 2026-04-28 09:10 | 44.69567 | -0.64271 | 7226 ft | 282 kts | 92° |
| 2026-04-28 09:10 | 44.69465 | -0.61492 | 8029 ft | 287 kts | 92° |
| 2026-04-28 09:10 | 44.69371 | -0.58662 | 8828 ft | 292 kts | 92° |
| 2026-04-28 09:10 | 44.69277 | -0.55809 | 9606 ft | 297 kts | 92° |
| 2026-04-28 09:11 | 44.69176 | -0.52877 | 10342 ft | 303 kts | 92° |
| 2026-04-28 09:11 | 44.69065 | -0.49853 | 10838 ft | 318 kts | 92° |
| 2026-04-28 09:11 | 44.68944 | -0.46645 | 11129 ft | 339 kts | 93° |
| 2026-04-28 09:11 | 44.68815 | -0.43290 | 11726 ft | 348 kts | 93° |
| 2026-04-28 09:12 | 44.68679 | -0.39862 | 12469 ft | 353 kts | 93° |
| 2026-04-28 09:12 | 44.68540 | -0.36384 | 13205 ft | 358 kts | 93° |
| 2026-04-28 09:12 | 44.68397 | -0.32861 | 13886 ft | 363 kts | 93° |
| 2026-04-28 09:12 | 44.68252 | -0.29298 | 14491 ft | 368 kts | 94° |
| 2026-04-28 09:13 | 44.68105 | -0.25694 | 15111 ft | 371 kts | 94° |
| 2026-04-28 09:13 | 44.67957 | -0.22051 | 15729 ft | 375 kts | 94° |
| 2026-04-28 09:13 | 44.67792 | -0.18384 | 16344 ft | 378 kts | 97° |
| 2026-04-28 09:13 | 44.67289 | -0.14798 | 16946 ft | 380 kts | 109° |
| 2026-04-28 09:14 | 44.66308 | -0.11347 | 17572 ft | 380 kts | 119° |
| 2026-04-28 09:14 | 44.65120 | -0.08013 | 18201 ft | 383 kts | 119° |
| 2026-04-28 09:14 | 44.63924 | -0.04648 | 18749 ft | 386 kts | 119° |
| 2026-04-28 09:14 | 44.62715 | -0.01241 | 19307 ft | 390 kts | 119° |
| 2026-04-28 09:15 | 44.61510 | 0.02151 | 19921 ft | 394 kts | 120° |
| 2026-04-28 09:15 | 44.60279 | 0.05618 | 20608 ft | 396 kts | 120° |
| 2026-04-28 09:15 | 44.59047 | 0.09084 | 21255 ft | 398 kts | 120° |
| 2026-04-28 09:15 | 44.57807 | 0.12581 | 21785 ft | 401 kts | 120° |
| 2026-04-28 09:16 | 44.56575 | 0.16058 | 22298 ft | 404 kts | 120° |
| 2026-04-28 09:16 | 44.55315 | 0.19595 | 22803 ft | 406 kts | 120° |
| 2026-04-28 09:16 | 44.54043 | 0.23153 | 23305 ft | 409 kts | 120° |
| 2026-04-28 09:16 | 44.52761 | 0.26731 | 23762 ft | 412 kts | 120° |
| 2026-04-28 09:17 | 44.51465 | 0.30343 | 24158 ft | 415 kts | 120° |
| 2026-04-28 09:17 | 44.50178 | 0.33933 | 24529 ft | 418 kts | 120° |
| 2026-04-28 09:17 | 44.48864 | 0.37597 | 24914 ft | 421 kts | 120° |
| 2026-04-28 09:17 | 44.47541 | 0.41285 | 25269 ft | 425 kts | 120° |
| 2026-04-28 09:18 | 44.46208 | 0.44997 | 25639 ft | 428 kts | 120° |
| 2026-04-28 09:18 | 44.44890 | 0.48701 | 26005 ft | 432 kts | 118° |
| 2026-04-28 09:18 | 44.43846 | 0.52679 | 26376 ft | 439 kts | 108° |
| 2026-04-28 09:18 | 44.43253 | 0.56902 | 26719 ft | 444 kts | 101° |
| 2026-04-28 09:19 | 44.42789 | 0.61187 | 27068 ft | 447 kts | 101° |
| 2026-04-28 09:19 | 44.42315 | 0.65504 | 27407 ft | 450 kts | 101° |
| 2026-04-28 09:19 | 44.41830 | 0.69846 | 27712 ft | 453 kts | 101° |
| 2026-04-28 09:19 | 44.41337 | 0.74213 | 28095 ft | 455 kts | 101° |
| 2026-04-28 09:20 | 44.40841 | 0.78589 | 28437 ft | 457 kts | 101° |
| 2026-04-28 09:20 | 44.40340 | 0.83002 | 28758 ft | 460 kts | 101° |
| 2026-04-28 09:20 | 44.39835 | 0.87442 | 29083 ft | 463 kts | 101° |
| 2026-04-28 09:20 | 44.39328 | 0.91908 | 29397 ft | 466 kts | 101° |
| 2026-04-28 09:21 | 44.38815 | 0.96392 | 29712 ft | 469 kts | 101° |
| 2026-04-28 09:21 | 44.38296 | 1.00902 | 30019 ft | 472 kts | 101° |
| 2026-04-28 09:21 | 44.37776 | 1.05398 | 30288 ft | 474 kts | 101° |
| 2026-04-28 09:21 | 44.37245 | 1.09982 | 30560 ft | 476 kts | 101° |
| 2026-04-28 09:22 | 44.36714 | 1.14556 | 30823 ft | 478 kts | 102° |
| 2026-04-28 09:22 | 44.36175 | 1.19166 | 31055 ft | 481 kts | 102° |
| 2026-04-28 09:22 | 44.35631 | 1.23803 | 31306 ft | 483 kts | 102° |
| 2026-04-28 09:22 | 44.35084 | 1.28454 | 31577 ft | 484 kts | 102° |
| 2026-04-28 09:23 | 44.34546 | 1.33038 | 31947 ft | 483 kts | 102° |
| 2026-04-28 09:23 | 44.33999 | 1.37672 | 32329 ft | 482 kts | 102° |
| 2026-04-28 09:23 | 44.33451 | 1.42325 | 32682 ft | 481 kts | 102° |
| 2026-04-28 09:23 | 44.32912 | 1.46883 | 33037 ft | 480 kts | 102° |
| 2026-04-28 09:24 | 44.32362 | 1.51492 | 33398 ft | 479 kts | 102° |
| 2026-04-28 09:24 | 44.31813 | 1.56082 | 33784 ft | 478 kts | 102° |
| 2026-04-28 09:24 | 44.31262 | 1.60660 | 34010 ft | 477 kts | 102° |
| 2026-04-28 09:25 | 44.30173 | 1.69670 | 34049 ft | 465 kts | 100° |
| 2026-04-28 09:25 | 44.30213 | 1.78638 | 34041 ft | 468 kts | 81° |
| 2026-04-28 09:26 | 44.31668 | 1.87529 | 34045 ft | 469 kts | 77° |
| 2026-04-28 09:26 | 44.33146 | 1.96386 | 34047 ft | 468 kts | 77° |
| 2026-04-28 09:27 | 44.35347 | 2.09674 | 34056 ft | 468 kts | 77° |
| 2026-04-28 09:27 | 44.36810 | 2.18536 | 34061 ft | 468 kts | 77° |
| 2026-04-28 09:28 | 44.38263 | 2.27361 | 34076 ft | 468 kts | 77° |
| 2026-04-28 09:28 | 44.39717 | 2.36249 | 34101 ft | 468 kts | 77° |
| 2026-04-28 09:29 | 44.41162 | 2.45146 | 34085 ft | 468 kts | 78° |
| 2026-04-28 09:29 | 44.42587 | 2.53981 | 34071 ft | 468 kts | 78° |
| 2026-04-28 09:30 | 44.44019 | 2.62923 | 34067 ft | 468 kts | 78° |
| 2026-04-28 09:30 | 44.45438 | 2.71780 | 34062 ft | 469 kts | 77° |
| 2026-04-28 09:31 | 44.46864 | 2.80715 | 34054 ft | 469 kts | 77° |
| 2026-04-28 09:31 | 44.48564 | 2.89477 | 34042 ft | 468 kts | 66° |
| 2026-04-28 09:32 | 44.51799 | 2.97367 | 34040 ft | 466 kts | 54° |
| 2026-04-28 09:32 | 44.55429 | 3.04881 | 34039 ft | 466 kts | 54° |
| 2026-04-28 09:33 | 44.59036 | 3.12442 | 34053 ft | 466 kts | 54° |
| 2026-04-28 09:33 | 44.62541 | 3.20062 | 34044 ft | 468 kts | 57° |
| 2026-04-28 09:34 | 44.65755 | 3.28053 | 34037 ft | 469 kts | 60° |
| 2026-04-28 09:34 | 44.68844 | 3.36119 | 34031 ft | 469 kts | 60° |
| 2026-04-28 09:35 | 44.71990 | 3.44156 | 34032 ft | 469 kts | 59° |
| 2026-04-28 09:35 | 44.75205 | 3.52192 | 34025 ft | 470 kts | 59° |
| 2026-04-28 09:36 | 44.78395 | 3.60166 | 34029 ft | 470 kts | 59° |
| 2026-04-28 09:36 | 44.81595 | 3.68213 | 34031 ft | 469 kts | 59° |
| 2026-04-28 09:37 | 44.84774 | 3.76265 | 34029 ft | 470 kts | 59° |
| 2026-04-28 09:37 | 44.87936 | 3.84323 | 34019 ft | 469 kts | 59° |
| 2026-04-28 09:38 | 44.91077 | 3.92327 | 34028 ft | 468 kts | 59° |
| 2026-04-28 09:38 | 44.94238 | 4.00394 | 34046 ft | 469 kts | 59° |
| 2026-04-28 09:39 | 44.97390 | 4.08471 | 34029 ft | 469 kts | 60° |
| 2026-04-28 09:39 | 45.00536 | 4.16540 | 34031 ft | 469 kts | 60° |
| 2026-04-28 09:40 | 45.03656 | 4.24584 | 34020 ft | 469 kts | 60° |
| 2026-04-28 09:40 | 45.06793 | 4.32686 | 34030 ft | 468 kts | 60° |
| 2026-04-28 09:41 | 45.09925 | 4.40805 | 34024 ft | 468 kts | 60° |
| 2026-04-28 09:41 | 45.13022 | 4.48852 | 34033 ft | 468 kts | 60° |
| 2026-04-28 09:42 | 45.16149 | 4.57007 | 34022 ft | 469 kts | 60° |
| 2026-04-28 09:42 | 45.19245 | 4.65124 | 34024 ft | 469 kts | 60° |
| 2026-04-28 09:43 | 45.22336 | 4.73235 | 34025 ft | 469 kts | 60° |
| 2026-04-28 09:43 | 45.24919 | 4.80021 | 34023 ft | 469 kts | 60° |
| 2026-04-28 09:44 | 45.28025 | 4.88202 | 34028 ft | 468 kts | 60° |
| 2026-04-28 09:44 | 45.31093 | 4.96323 | 34034 ft | 469 kts | 60° |
| 2026-04-28 09:45 | 45.34181 | 5.04512 | 34029 ft | 470 kts | 60° |
| 2026-04-28 09:45 | 45.37273 | 5.12732 | 34043 ft | 470 kts | 60° |
| 2026-04-28 09:46 | 45.40332 | 5.20893 | 34050 ft | 470 kts | 60° |
| 2026-04-28 09:46 | 45.43409 | 5.29121 | 34061 ft | 470 kts | 60° |
| 2026-04-28 09:47 | 45.46465 | 5.37346 | 34063 ft | 470 kts | 60° |
| 2026-04-28 09:47 | 45.50022 | 5.45012 | 34042 ft | 465 kts | 45° |
| 2026-04-28 09:48 | 45.54712 | 5.51298 | 34033 ft | 461 kts | 38° |
| 2026-04-28 09:48 | 45.59510 | 5.57418 | 34026 ft | 461 kts | 38° |
| 2026-04-28 09:49 | 45.64277 | 5.63529 | 34056 ft | 462 kts | 38° |
| 2026-04-28 09:49 | 45.69066 | 5.69669 | 34051 ft | 463 kts | 38° |
| 2026-04-28 09:50 | 45.73837 | 5.75815 | 34036 ft | 463 kts | 38° |
| 2026-04-28 09:50 | 45.78643 | 5.81989 | 34046 ft | 463 kts | 38° |
| 2026-04-28 09:51 | 45.83410 | 5.88112 | 34068 ft | 464 kts | 38° |
| 2026-04-28 09:51 | 45.88224 | 5.94323 | 34049 ft | 464 kts | 38° |
| 2026-04-28 09:52 | 45.93004 | 6.00513 | 34054 ft | 464 kts | 38° |
| 2026-04-28 09:52 | 45.97777 | 6.06698 | 34054 ft | 463 kts | 38° |
| 2026-04-28 09:53 | 46.02575 | 6.12925 | 34069 ft | 464 kts | 38° |
| 2026-04-28 09:53 | 46.07345 | 6.19146 | 34044 ft | 465 kts | 40° |
| 2026-04-28 09:54 | 46.11464 | 6.26407 | 34052 ft | 471 kts | 52° |
| 2026-04-28 09:54 | 46.15236 | 6.34161 | 34054 ft | 472 kts | 52° |
| 2026-04-28 09:55 | 46.18996 | 6.41858 | 34071 ft | 472 kts | 52° |
| 2026-04-28 09:55 | 46.22778 | 6.49628 | 34064 ft | 472 kts | 52° |
| 2026-04-28 09:56 | 46.26552 | 6.57408 | 34046 ft | 472 kts | 52° |
| 2026-04-28 09:56 | 46.30291 | 6.65148 | 34050 ft | 472 kts | 52° |
| 2026-04-28 09:57 | 46.34059 | 6.72973 | 34044 ft | 472 kts | 52° |
| 2026-04-28 09:57 | 46.37796 | 6.80751 | 34059 ft | 472 kts | 52° |
| 2026-04-28 09:58 | 46.41546 | 6.88576 | 34046 ft | 472 kts | 52° |
| 2026-04-28 09:58 | 46.45263 | 6.96358 | 34058 ft | 472 kts | 53° |
| 2026-04-28 09:59 | 46.48998 | 7.04209 | 34054 ft | 471 kts | 53° |
| 2026-04-28 09:59 | 46.52703 | 7.12013 | 34059 ft | 471 kts | 53° |
| 2026-04-28 10:00 | 46.56607 | 7.19639 | 34052 ft | 466 kts | 43° |
| 2026-04-28 10:00 | 46.61600 | 7.25421 | 34055 ft | 455 kts | 24° |
| 2026-04-28 10:01 | 46.67284 | 7.29377 | 34049 ft | 452 kts | 19° |
| 2026-04-28 10:01 | 46.72971 | 7.33209 | 34044 ft | 452 kts | 20° |
| 2026-04-28 10:02 | 46.78681 | 7.37088 | 34049 ft | 452 kts | 20° |
| 2026-04-28 10:02 | 46.84228 | 7.41529 | 34044 ft | 459 kts | 33° |
| 2026-04-28 10:03 | 46.88728 | 7.48166 | 34043 ft | 466 kts | 49° |
| 2026-04-28 10:03 | 46.92821 | 7.55541 | 34041 ft | 464 kts | 41° |
| 2026-04-28 10:04 | 46.95309 | 7.58449 | 33749 ft | 451 kts | 25° |
| 2026-04-28 10:04 | 46.98126 | 7.60273 | 33101 ft | 438 kts | 8° |
| 2026-04-28 10:04 | 47.01075 | 7.60862 | 32581 ft | 420 kts | 352° |
| 2026-04-28 10:04 | 47.03885 | 7.60327 | 32113 ft | 403 kts | 337° |
| 2026-04-28 10:05 | 47.06442 | 7.58834 | 31652 ft | 387 kts | 323° |
| 2026-04-28 10:05 | 47.08596 | 7.56593 | 31211 ft | 374 kts | 313° |
| 2026-04-28 10:05 | 47.10553 | 7.54107 | 30794 ft | 369 kts | 313° |
| 2026-04-28 10:05 | 47.12489 | 7.51648 | 30388 ft | 366 kts | 313° |
| 2026-04-28 10:06 | 47.14404 | 7.49212 | 29992 ft | 362 kts | 313° |
| 2026-04-28 10:06 | 47.16273 | 7.46830 | 29555 ft | 357 kts | 312° |
| 2026-04-28 10:06 | 47.18138 | 7.44451 | 29165 ft | 351 kts | 312° |
| 2026-04-28 10:06 | 47.19972 | 7.42108 | 28776 ft | 346 kts | 312° |
| 2026-04-28 10:07 | 47.21770 | 7.39804 | 28416 ft | 340 kts | 312° |
| 2026-04-28 10:07 | 47.23544 | 7.37530 | 28053 ft | 336 kts | 312° |
| 2026-04-28 10:07 | 47.25295 | 7.35283 | 27684 ft | 332 kts | 312° |
| 2026-04-28 10:07 | 47.27024 | 7.33064 | 27318 ft | 328 kts | 312° |
| 2026-04-28 10:08 | 47.28743 | 7.30857 | 26944 ft | 326 kts | 312° |
| 2026-04-28 10:08 | 47.30436 | 7.28680 | 26506 ft | 325 kts | 312° |
| 2026-04-28 10:08 | 47.32138 | 7.26491 | 26101 ft | 324 kts | 312° |
| 2026-04-28 10:08 | 47.33828 | 7.24315 | 25695 ft | 322 kts | 312° |
| 2026-04-28 10:09 | 47.35514 | 7.22137 | 25288 ft | 321 kts | 312° |
| 2026-04-28 10:09 | 47.37192 | 7.19965 | 24883 ft | 320 kts | 311° |
| 2026-04-28 10:09 | 47.38867 | 7.17799 | 24442 ft | 320 kts | 311° |
| 2026-04-28 10:09 | 47.40354 | 7.15464 | 24008 ft | 312 kts | 301° |
| 2026-04-28 10:10 | 47.41510 | 7.12790 | 23591 ft | 305 kts | 290° |
| 2026-04-28 10:10 | 47.42383 | 7.09957 | 23135 ft | 303 kts | 289° |
| 2026-04-28 10:10 | 47.43248 | 7.07108 | 22732 ft | 303 kts | 289° |
| 2026-04-28 10:10 | 47.44103 | 7.04299 | 22333 ft | 303 kts | 289° |
| 2026-04-28 10:11 | 47.44970 | 7.01456 | 21936 ft | 302 kts | 290° |
| 2026-04-28 10:11 | 47.45836 | 6.98619 | 21532 ft | 301 kts | 290° |
| 2026-04-28 10:11 | 47.46738 | 6.95856 | 21148 ft | 303 kts | 298° |
| 2026-04-28 10:11 | 47.48096 | 6.93443 | 20742 ft | 309 kts | 315° |
| 2026-04-28 10:12 | 47.49951 | 6.91689 | 20329 ft | 317 kts | 333° |
| 2026-04-28 10:12 | 47.52039 | 6.90695 | 19946 ft | 320 kts | 341° |
| 2026-04-28 10:12 | 47.54203 | 6.89890 | 19535 ft | 322 kts | 344° |
| 2026-04-28 10:12 | 47.56415 | 6.89241 | 19111 ft | 325 kts | 347° |
| 2026-04-28 10:13 | 47.58644 | 6.88771 | 18886 ft | 315 kts | 351° |
| 2026-04-28 10:13 | 47.60759 | 6.88486 | 18673 ft | 302 kts | 353° |
| 2026-04-28 10:13 | 47.62857 | 6.88396 | 18419 ft | 300 kts | 3° |
| 2026-04-28 10:13 | 47.64843 | 6.89289 | 18171 ft | 299 kts | 30° |
| 2026-04-28 10:14 | 47.66375 | 6.91364 | 17907 ft | 300 kts | 56° |
| 2026-04-28 10:14 | 47.67140 | 6.94180 | 17582 ft | 299 kts | 83° |
| 2026-04-28 10:14 | 47.67018 | 6.97217 | 17252 ft | 295 kts | 110° |
| 2026-04-28 10:14 | 47.66182 | 6.99981 | 16922 ft | 293 kts | 116° |
| 2026-04-28 10:15 | 47.65586 | 7.02871 | 16588 ft | 295 kts | 99° |
| 2026-04-28 10:15 | 47.65354 | 7.05909 | 16253 ft | 297 kts | 97° |
| 2026-04-28 10:15 | 47.65166 | 7.08918 | 15957 ft | 296 kts | 96° |
| 2026-04-28 10:15 | 47.64999 | 7.11975 | 15648 ft | 296 kts | 96° |
| 2026-04-28 10:16 | 47.64716 | 7.15024 | 15081 ft | 303 kts | 110° |
| 2026-04-28 10:16 | 47.63673 | 7.17705 | 14490 ft | 307 kts | 136° |
| 2026-04-28 10:16 | 47.61959 | 7.19558 | 14086 ft | 304 kts | 154° |
| 2026-04-28 10:16 | 47.60090 | 7.21027 | 13728 ft | 304 kts | 155° |
| 2026-04-28 10:17 | 47.58214 | 7.22453 | 13373 ft | 302 kts | 155° |
| 2026-04-28 10:17 | 47.56341 | 7.23869 | 13019 ft | 301 kts | 155° |
| 2026-04-28 10:17 | 47.54477 | 7.25278 | 12660 ft | 300 kts | 155° |
| 2026-04-28 10:17 | 47.52626 | 7.26673 | 12320 ft | 298 kts | 155° |
| 2026-04-28 10:18 | 47.50780 | 7.28061 | 11991 ft | 297 kts | 155° |
| 2026-04-28 10:18 | 47.48962 | 7.29429 | 11645 ft | 295 kts | 155° |
| 2026-04-28 10:18 | 47.47136 | 7.30802 | 11309 ft | 293 kts | 155° |
| 2026-04-28 10:18 | 47.45318 | 7.32167 | 10964 ft | 292 kts | 155° |
| 2026-04-28 10:19 | 47.43506 | 7.33524 | 10637 ft | 290 kts | 155° |
| 2026-04-28 10:19 | 47.41726 | 7.34858 | 10317 ft | 288 kts | 155° |
| 2026-04-28 10:19 | 47.39938 | 7.36195 | 9988 ft | 286 kts | 155° |
| 2026-04-28 10:19 | 47.38172 | 7.37512 | 9776 ft | 279 kts | 155° |
| 2026-04-28 10:20 | 47.36468 | 7.38817 | 9641 ft | 271 kts | 150° |
| 2026-04-28 10:20 | 47.35116 | 7.40645 | 9505 ft | 265 kts | 127° |
| 2026-04-28 10:20 | 47.34355 | 7.43094 | 9374 ft | 261 kts | 103° |
| 2026-04-28 10:20 | 47.34293 | 7.45728 | 9238 ft | 255 kts | 85° |
| 2026-04-28 10:21 | 47.34465 | 7.48268 | 9107 ft | 248 kts | 86° |
| 2026-04-28 10:21 | 47.34635 | 7.50779 | 8957 ft | 242 kts | 86° |
| 2026-04-28 10:21 | 47.34799 | 7.53212 | 8815 ft | 238 kts | 86° |
| 2026-04-28 10:21 | 47.34960 | 7.55633 | 8571 ft | 236 kts | 86° |
| 2026-04-28 10:22 | 47.35118 | 7.58035 | 8246 ft | 234 kts | 86° |
| 2026-04-28 10:22 | 47.35275 | 7.60423 | 7859 ft | 232 kts | 86° |
| 2026-04-28 10:22 | 47.35428 | 7.62749 | 7478 ft | 230 kts | 85° |
| 2026-04-28 10:22 | 47.35918 | 7.64989 | 7257 ft | 231 kts | 55° |
| 2026-04-28 10:23 | 47.37113 | 7.66474 | 7137 ft | 222 kts | 23° |
| 2026-04-28 10:23 | 47.38580 | 7.66808 | 7031 ft | 210 kts | 351° |
| 2026-04-28 10:23 | 47.39888 | 7.66128 | 6841 ft | 194 kts | 330° |
| 2026-04-28 10:23 | 47.41127 | 7.65230 | 6365 ft | 201 kts | 334° |
| 2026-04-28 10:24 | 47.42433 | 7.64394 | 5837 ft | 206 kts | 334° |
| 2026-04-28 10:24 | 47.43725 | 7.63557 | 5414 ft | 204 kts | 335° |
| 2026-04-28 10:24 | 47.45027 | 7.62734 | 5001 ft | 201 kts | 334° |
| 2026-04-28 10:24 | 47.46271 | 7.61860 | 4537 ft | 196 kts | 331° |
| 2026-04-28 10:25 | 47.47486 | 7.60927 | 3955 ft | 196 kts | 332° |
| 2026-04-28 10:25 | 47.48710 | 7.60032 | 3461 ft | 196 kts | 334° |
| 2026-04-28 10:25 | 47.49926 | 7.59189 | 3190 ft | 187 kts | 336° |
| 2026-04-28 10:25 | 47.51078 | 7.58414 | 2881 ft | 178 kts | 336° |
| 2026-04-28 10:26 | 47.52169 | 7.57677 | 2632 ft | 169 kts | 338° |
| 2026-04-28 10:26 | 47.53196 | 7.56959 | 2427 ft | 161 kts | 335° |
| 2026-04-28 10:26 | 47.54196 | 7.56246 | 2152 ft | 158 kts | 335° |
| 2026-04-28 10:26 | 47.55184 | 7.55579 | 1897 ft | 154 kts | 336° |
| 2026-04-28 10:27 | 47.56143 | 7.54908 | 1672 ft | 151 kts | 335° |
| 2026-04-28 10:27 | 47.57083 | 7.54256 | 1446 ft | 147 kts | 335° |
| 2026-04-28 10:27 | 47.57992 | 7.53612 | 1274 ft | 145 kts | 337° |
| 2026-04-28 10:27 | 47.58901 | 7.52988 | 1053 ft | 143 kts | 335° |
| 2026-04-28 10:28 | 47.59797 | 7.52359 | 913 ft | 141 kts | 336° |
| 2026-04-28 10:28 | 47.60589 | 7.51814 | 880 ft | 103 kts | 334° |
| 2026-04-28 10:28 | 47.61082 | 7.51469 | 871 ft | 54 kts | 335° |
| 2026-04-28 10:29 | 47.61628 | 7.51091 | 876 ft | 37 kts | 335° |
| 2026-04-28 10:29 | 47.61765 | 7.51044 | 876 ft | 17 kts | 26° |
| 2026-04-28 10:29 | 47.61806 | 7.51204 | 873 ft | 18 kts | 104° |
| 2026-04-28 10:29 | 47.61711 | 7.51325 | 872 ft | 20 kts | 155° |
| 2026-04-28 10:30 | 47.61576 | 7.51419 | 859 ft | 24 kts | 157° |
| 2026-04-28 10:30 | 47.61419 | 7.51527 | 858 ft | 26 kts | 154° |
| 2026-04-28 10:30 | 47.61260 | 7.51637 | 870 ft | 23 kts | 155° |
| 2026-04-28 10:30 | 47.61116 | 7.51738 | 873 ft | 23 kts | 154° |
| 2026-04-28 10:31 | 47.61021 | 7.51805 | 876 ft | 23 kts | 154° |
| 2026-04-28 10:31 | 47.60877 | 7.51904 | 880 ft | 22 kts | 155° |
| 2026-04-28 10:31 | 47.60737 | 7.52000 | 881 ft | 23 kts | 155° |
| 2026-04-28 10:31 | 47.60586 | 7.52104 | 882 ft | 25 kts | 154° |
| 2026-04-28 10:32 | 47.60428 | 7.52216 | 883 ft | 26 kts | 154° |
| 2026-04-28 10:32 | 47.60266 | 7.52330 | 889 ft | 25 kts | 155° |
| 2026-04-28 10:32 | 47.60106 | 7.52441 | 890 ft | 26 kts | 154° |
| 2026-04-28 10:32 | 47.59937 | 7.52559 | 890 ft | 27 kts | 154° |
| 2026-04-28 10:33 | 47.59824 | 7.52639 | 890 ft | 14 kts | 154° |
| 2026-04-28 10:33 | 47.59769 | 7.52723 | 890 ft | 11 kts | 88° |
| 2026-04-28 10:33 | 47.59733 | 7.52797 | 890 ft | 9 kts | 158° |
| 2026-04-28 10:33 | 47.59681 | 7.52830 | 890 ft | 8 kts | 156° |
| 2026-04-28 10:34 | 47.59653 | 7.52887 | 890 ft | 9 kts | 82° |
| 2026-04-28 10:34 | 47.59681 | 7.52973 | 890 ft | 9 kts | 65° |
| 2026-04-28 10:34 | 47.59725 | 7.53026 | 890 ft | 9 kts | 8° |
| 2026-04-28 10:34 | 47.59787 | 7.53020 | 890 ft | 9 kts | 332° |
| 2026-04-28 10:35 | 47.59822 | 7.52969 | 890 ft | 5 kts | 314° |
| 2026-04-28 10:35 | 47.59829 | 7.52957 | 890 ft | 0 kts | 314° |